createdAt,value
2019-04-10T00:03:46.315Z,1.65
2019-04-10T00:07:51.792Z,1.63
2019-04-10T00:11:57.252Z,1.75
2019-04-10T00:16:00.879Z,1.62
2019-04-10T00:20:10.292Z,1.40
2019-04-10T00:24:20.513Z,1.31
2019-04-10T00:28:24.125Z,0.98
2019-04-10T00:32:29.968Z,0.82
2019-04-10T00:36:35.224Z,0.70
2019-04-10T00:40:44.552Z,0.63
2019-04-10T00:44:48.837Z,0.57
2019-04-10T00:48:54.461Z,0.60
2019-04-10T00:52:58.746Z,0.61
2019-04-10T00:57:05.302Z,0.49
2019-04-10T01:01:11.855Z,0.24
2019-04-10T01:05:16.025Z,0.10
2019-04-10T01:09:24.067Z,0.10
2019-04-10T01:13:29.198Z,0.10
2019-04-10T01:17:34.654Z,0.09
2019-04-10T01:21:47.857Z,0.10
2019-04-10T01:25:52.876Z,0.31
2019-04-10T01:29:56.496Z,0.29
2019-04-10T01:34:01.021Z,0.39
2019-04-10T01:38:06.470Z,0.24
2019-04-10T01:42:10.534Z,0.06
2019-04-10T01:46:14.210Z,-0.33
2019-04-10T01:50:18.069Z,-0.39
2019-04-10T01:54:22.715Z,-0.25
2019-04-10T01:58:27.364Z,-0.08
2019-04-10T02:02:33.603Z,0.08
2019-04-10T02:06:37.782Z,0.08
2019-04-10T02:10:42.547Z,-0.23
2019-04-10T02:14:46.829Z,-0.23
2019-04-10T02:18:50.507Z,-0.06
2019-04-10T02:22:54.129Z,-0.06
2019-04-10T02:26:58.203Z,0.05
2019-04-10T02:31:02.826Z,-0.05
2019-04-10T02:35:10.527Z,0.07
2019-04-10T02:39:24.296Z,0.11
2019-04-10T02:43:18.955Z,0.03
2019-04-10T02:47:23.034Z,0.03
2019-04-10T02:51:27.172Z,0.05
2019-04-10T02:55:31.415Z,0.01
2019-04-10T02:59:35.253Z,0.10
2019-04-10T03:03:40.263Z,0.19
2019-04-10T03:07:44.470Z,0.51
2019-04-10T03:11:49.860Z,0.41
2019-04-10T03:15:53.651Z,0.39
2019-04-10T03:19:58.811Z,0.42
2019-04-10T03:24:02.461Z,0.37
2019-04-10T03:28:07.103Z,0.45
2019-04-10T03:32:34.527Z,0.72
2019-04-10T03:36:38.486Z,0.94
2019-04-10T03:40:42.097Z,0.72
2019-04-10T03:44:45.706Z,0.59
2019-04-10T03:48:49.469Z,0.51
2019-04-10T03:52:53.758Z,0.29
2019-04-10T03:56:58.283Z,0.04
2019-04-10T04:01:02.750Z,-0.16
2019-04-10T04:05:07.246Z,-0.16
2019-04-10T04:09:17.549Z,-0.19
2019-04-10T04:13:21.885Z,-0.19
2019-04-10T04:17:26.258Z,-0.14
2019-04-10T04:21:34.139Z,-0.02
2019-04-10T04:25:38.694Z,0.01
2019-04-10T04:29:43.496Z,-0.07
2019-04-10T04:33:47.156Z,-0.18
2019-04-10T04:37:50.839Z,-0.18
2019-04-10T04:41:54.444Z,-0.26
2019-04-10T04:45:59.058Z,-0.15
2019-04-10T04:50:03.581Z,-0.09
2019-04-10T04:54:07.271Z,-0.05
2019-04-10T04:58:22.303Z,0.05
2019-04-10T05:02:24.116Z,0.25
2019-04-10T05:06:28.806Z,0.26
2019-04-10T05:10:33.493Z,0.28
2019-04-10T05:14:37.799Z,0.42
2019-04-10T05:18:43.506Z,0.62
2019-04-10T05:22:47.271Z,0.64
2019-04-10T05:26:51.202Z,0.68
2019-04-10T05:30:54.915Z,0.87
2019-04-10T05:34:58.798Z,0.86
2019-04-10T05:39:02.441Z,0.93
2019-04-10T05:43:06.080Z,1.09
2019-04-10T05:47:10.337Z,1.23
2019-04-10T05:51:15.014Z,1.20
2019-04-10T05:55:18.736Z,1.72
2019-04-10T05:59:22.348Z,1.90
2019-04-10T06:03:25.961Z,2.41
2019-04-10T06:07:29.675Z,2.38
2019-04-10T06:11:33.295Z,2.48
2019-04-10T06:15:37.361Z,2.89
2019-04-10T06:19:44.782Z,2.84
2019-04-10T06:23:49.773Z,2.87
2019-04-10T06:27:53.794Z,3.28
2019-04-10T06:31:57.500Z,3.21
2019-04-10T06:36:01.034Z,3.56
2019-04-10T06:40:15.087Z,4.03
2019-04-10T06:44:11.832Z,5.32
2019-04-10T06:48:15.553Z,5.31
2019-04-10T06:52:19.354Z,6.42
2019-04-10T06:56:23.019Z,8.01
2019-04-10T07:00:26.690Z,8.25
2019-04-10T07:04:43.156Z,7.20
2019-04-10T07:08:35.777Z,5.89
2019-04-10T07:12:39.897Z,5.56
2019-04-10T07:16:44.323Z,6.70
2019-04-10T07:20:48.964Z,6.77
2019-04-10T07:24:52.671Z,6.64
2019-04-10T07:28:58.769Z,7.20
2019-04-10T07:33:03.627Z,9.86
2019-04-10T07:37:10.640Z,11.02
2019-04-10T07:41:19.335Z,10.82
2019-04-10T07:45:19.452Z,10.71
2019-04-10T07:49:26.646Z,13.75
2019-04-10T07:53:29.243Z,16.00
2019-04-10T07:57:33.161Z,15.70
2019-04-10T08:01:37.554Z,17.00
2019-04-10T08:05:41.870Z,17.49
2019-04-10T08:09:46.372Z,14.60
2019-04-10T08:13:51.142Z,14.75
2019-04-10T08:17:54.799Z,13.50
2019-04-10T08:21:58.519Z,14.22
2019-04-10T08:26:02.141Z,17.26
2019-04-10T08:30:10.705Z,15.41
2019-04-10T08:34:13.529Z,16.43
2019-04-10T08:38:17.382Z,14.49
2019-04-10T08:42:22.375Z,14.88
2019-04-10T08:46:26.355Z,13.80
2019-04-10T08:50:30.289Z,13.22
2019-04-10T08:54:34.345Z,12.98
2019-04-10T08:58:39.081Z,12.48
2019-04-10T09:02:42.951Z,10.80
2019-04-10T09:06:47.359Z,13.67
2019-04-10T09:10:51.010Z,13.92
2019-04-10T09:14:54.610Z,13.20
2019-04-10T09:18:58.229Z,15.10
2019-04-10T09:23:22.112Z,18.97
2019-04-10T09:27:10.962Z,18.68
2019-04-10T09:31:15.687Z,18.91
2019-04-10T09:35:20.442Z,19.93
2019-04-10T09:39:25.382Z,19.32
2019-04-10T09:43:29.629Z,17.35
2019-04-10T09:47:34.757Z,15.35
2019-04-10T09:51:38.966Z,18.26
2019-04-10T09:55:42.860Z,17.37
2019-04-10T09:59:47.312Z,17.12
2019-04-10T10:03:50.998Z,14.93
2019-04-10T10:07:56.152Z,16.38
2019-04-10T10:12:01.034Z,17.79
2019-04-10T10:16:04.950Z,16.76
2019-04-10T10:20:09.440Z,15.87
2019-04-10T10:24:14.088Z,13.39
2019-04-10T10:28:18.647Z,18.35
2019-04-10T10:32:22.521Z,16.66
2019-04-10T10:36:36.759Z,15.74
2019-04-10T10:40:31.871Z,14.49
2019-04-10T10:44:36.261Z,17.38
2019-04-10T10:48:40.031Z,17.91
2019-04-10T10:52:43.857Z,19.01
2019-04-10T10:56:48.587Z,17.71
2019-04-10T11:00:53.593Z,16.03
2019-04-10T11:04:57.881Z,14.97
2019-04-10T11:09:02.000Z,13.76
2019-04-10T11:13:06.599Z,13.49
2019-04-10T11:17:11.851Z,11.58
2019-04-10T11:21:16.773Z,11.49
2019-04-10T11:25:22.060Z,12.40
2019-04-10T11:29:26.479Z,12.32
2019-04-10T11:33:30.756Z,11.34
2019-04-10T11:37:41.614Z,11.33
2019-04-10T11:41:41.338Z,11.29
2019-04-10T11:45:51.632Z,11.09
2019-04-10T11:49:50.713Z,12.16
2019-04-10T11:53:56.408Z,11.59
2019-04-10T11:58:00.091Z,12.04
2019-04-10T12:02:06.478Z,11.97
2019-04-10T12:06:11.948Z,10.56
2019-04-10T12:14:19.746Z,11.63
2019-04-10T12:18:24.602Z,10.35
2019-04-10T12:22:28.363Z,11.69
2019-04-10T12:26:33.910Z,11.05
2019-04-10T12:30:37.605Z,11.14
2019-04-10T12:34:42.388Z,11.07
2019-04-10T12:38:46.135Z,11.18
2019-04-10T12:42:49.714Z,10.58
2019-04-10T12:46:53.432Z,11.29
2019-04-10T12:50:57.183Z,12.30
2019-04-10T12:55:01.918Z,11.12
2019-04-10T12:59:06.844Z,10.70
2019-04-10T13:03:11.227Z,11.14
2019-04-10T13:07:15.771Z,11.42
2019-04-10T13:11:20.487Z,11.42
2019-04-10T13:15:24.163Z,11.04
2019-04-10T13:19:29.100Z,11.92
2019-04-10T13:23:33.110Z,11.87
2019-04-10T13:27:36.957Z,11.54
2019-04-10T13:31:42.528Z,11.35
2019-04-10T13:35:46.352Z,10.98
2019-04-10T13:39:50.940Z,11.36
2019-04-10T13:43:54.667Z,10.67
2019-04-10T13:47:58.808Z,10.13
2019-04-10T13:52:03.591Z,10.19
2019-04-10T13:56:08.582Z,10.68
2019-04-10T14:00:23.798Z,11.35
2019-04-10T14:04:27.591Z,11.20
2019-04-10T14:08:47.199Z,10.73
2019-04-10T14:12:37.275Z,11.32
2019-04-10T14:16:41.214Z,10.98
2019-04-10T14:20:45.718Z,11.16
2019-04-10T14:24:50.749Z,10.78
2019-04-10T14:28:55.490Z,10.92
2019-04-10T14:32:59.340Z,10.19
2019-04-10T14:37:03.268Z,11.03
2019-04-10T14:41:07.085Z,11.54
2019-04-10T14:45:11.045Z,11.34
2019-04-10T14:49:14.720Z,10.70
2019-04-10T14:53:19.287Z,10.62
2019-04-10T14:57:23.373Z,10.47
2019-04-10T15:01:28.233Z,10.80
2019-04-10T15:05:33.197Z,10.57
2019-04-10T15:09:37.223Z,10.33
2019-04-10T15:13:40.854Z,11.01
2019-04-10T15:17:44.622Z,10.92
2019-04-10T15:21:49.195Z,11.06
2019-04-10T15:25:52.765Z,10.65
2019-04-10T15:29:56.806Z,9.69
2019-04-10T15:34:01.615Z,9.61
2019-04-10T15:38:06.240Z,9.60
2019-04-10T15:42:10.089Z,10.11
2019-04-10T15:46:13.623Z,9.97
2019-04-10T15:50:18.093Z,9.52
2019-04-10T15:54:22.188Z,9.28
2019-04-10T15:58:25.773Z,8.98
2019-04-10T16:02:29.980Z,9.05
2019-04-10T16:06:33.819Z,9.25
2019-04-10T16:10:48.113Z,9.36
2019-04-10T16:14:52.807Z,9.29
2019-04-10T16:18:59.263Z,9.05
2019-04-10T16:23:14.326Z,8.90
2019-04-10T16:27:18.088Z,9.09
2019-04-10T16:31:21.820Z,8.86
2019-04-10T16:35:25.535Z,8.79
2019-04-10T16:39:30.015Z,8.57
2019-04-10T16:43:33.583Z,8.66
2019-04-10T16:47:37.196Z,8.95
2019-04-10T16:51:40.752Z,9.14
2019-04-10T16:55:45.043Z,9.16
2019-04-10T16:59:48.873Z,8.99
2019-04-10T17:03:52.785Z,8.78
2019-04-10T17:07:57.326Z,8.63
2019-04-10T17:12:01.335Z,8.42
2019-04-10T17:16:05.217Z,8.11
2019-04-10T17:20:09.189Z,8.12
2019-04-10T17:24:13.367Z,7.97
2019-04-10T17:28:18.419Z,7.87
2019-04-10T17:32:23.374Z,7.78
2019-04-10T17:36:27.291Z,7.61
2019-04-10T17:40:38.482Z,7.52
2019-04-10T17:44:38.037Z,7.43
2019-04-10T17:48:42.034Z,7.49
2019-04-10T17:52:47.209Z,7.45
2019-04-10T17:56:51.626Z,7.41
2019-04-10T18:00:59.743Z,7.24
2019-04-10T18:05:04.531Z,7.19
2019-04-10T18:09:09.724Z,7.17
2019-04-10T18:13:13.641Z,7.08
2019-04-10T18:17:18.612Z,6.93
2019-04-10T18:21:22.532Z,6.87
2019-04-10T18:25:27.626Z,6.73
2019-04-10T18:29:31.515Z,6.58
2019-04-10T18:33:36.330Z,6.45
2019-04-10T18:37:41.250Z,6.35
2019-04-10T18:41:45.001Z,6.30
2019-04-10T18:45:58.339Z,6.21
2019-04-10T18:49:55.872Z,6.12
2019-04-10T18:53:59.892Z,6.05
2019-04-10T18:58:05.841Z,5.97
2019-04-10T19:02:17.974Z,5.90
2019-04-10T19:06:40.634Z,5.81
2019-04-10T19:10:45.385Z,5.75
2019-04-10T19:14:49.142Z,5.58
2019-04-10T19:18:53.783Z,5.58
2019-04-10T19:22:59.140Z,5.50
2019-04-10T19:27:04.127Z,5.33
2019-04-10T19:31:19.431Z,5.32
2019-04-10T19:35:21.378Z,5.23
2019-04-10T19:39:26.485Z,5.07
2019-04-10T19:43:31.610Z,5.02
2019-04-10T19:47:36.755Z,4.93
2019-04-10T19:51:44.744Z,4.81
2019-04-10T19:55:48.396Z,4.78
2019-04-10T19:59:52.327Z,4.74
2019-04-10T20:03:56.434Z,4.65
2019-04-10T20:08:00.192Z,4.75
2019-04-10T20:12:04.417Z,4.70
2019-04-10T20:16:09.124Z,4.60
2019-04-10T20:20:13.720Z,4.47
2019-04-10T20:24:18.963Z,4.55
2019-04-10T20:28:22.811Z,4.50
2019-04-10T20:32:26.481Z,4.39
2019-04-10T20:36:31.064Z,4.34
2019-04-10T20:40:35.897Z,4.32
2019-04-10T20:44:40.645Z,4.26
2019-04-10T20:48:44.693Z,4.26
2019-04-10T20:52:48.368Z,4.24
2019-04-10T20:56:51.956Z,4.26
2019-04-10T21:00:56.889Z,4.32
2019-04-10T21:05:06.052Z,4.24
2019-04-10T21:09:09.737Z,4.26
2019-04-10T21:13:15.037Z,4.22
2019-04-10T21:17:18.605Z,4.18
2019-04-10T21:21:22.304Z,4.26
2019-04-10T21:25:25.952Z,4.28
2019-04-10T21:29:46.673Z,4.36
2019-04-10T21:33:54.762Z,4.39
2019-04-10T21:37:59.154Z,4.39
2019-04-10T21:42:12.282Z,4.30
2019-04-10T21:46:08.268Z,4.39
2019-04-10T21:50:13.248Z,4.31
2019-04-10T21:54:16.849Z,4.40
2019-04-10T21:58:20.572Z,4.50
2019-04-10T22:02:24.485Z,4.49
2019-04-10T22:06:30.218Z,4.55
2019-04-10T22:10:41.918Z,4.49
2019-04-10T22:14:45.954Z,4.54
2019-04-10T22:18:49.843Z,4.43
2019-04-10T22:22:53.504Z,4.52
2019-04-10T22:26:57.162Z,4.46
2019-04-10T22:31:00.949Z,4.57
2019-04-10T22:35:06.757Z,4.55
2019-04-10T22:39:12.264Z,4.58
2019-04-10T22:43:15.942Z,4.67
2019-04-10T22:47:19.593Z,4.77
2019-04-10T22:51:23.316Z,4.85
2019-04-10T22:55:28.114Z,4.94
2019-04-10T22:59:32.646Z,5.02
2019-04-10T23:03:36.698Z,5.02
2019-04-10T23:07:40.366Z,5.12
2019-04-10T23:11:46.494Z,5.03
2019-04-10T23:15:49.600Z,5.14
2019-04-10T23:19:54.200Z,5.20
2019-04-10T23:23:59.027Z,5.06
2019-04-10T23:28:03.092Z,5.18
2019-04-10T23:32:06.874Z,5.09
2019-04-10T23:36:11.270Z,4.99
2019-04-10T23:40:15.177Z,4.96
2019-04-10T23:44:18.911Z,4.96
2019-04-10T23:48:22.567Z,5.05
2019-04-10T23:52:27.547Z,4.97
2019-04-10T23:56:33.212Z,4.84
